createdAt,value
2019-03-11T00:03:06.668Z,2.46
2019-03-11T00:08:06.824Z,2.49
2019-03-11T00:13:06.578Z,2.42
2019-03-11T00:17:07.244Z,2.2
2019-03-11T00:18:06.653Z,2.2
2019-03-11T00:22:06.573Z,2.15
2019-03-11T00:27:06.817Z,2.1
2019-03-11T00:32:06.226Z,2.03
2019-03-11T00:37:06.499Z,2.01
2019-03-11T00:42:06.161Z,2.05
2019-03-11T00:47:07.007Z,2.06
2019-03-11T00:51:07.007Z,2.13
2019-03-11T00:56:07.344Z,2.22
2019-03-11T01:01:06.640Z,2.26
2019-03-11T01:06:06.992Z,2.37
2019-03-11T01:11:06.695Z,2.42
2019-03-11T01:16:06.804Z,2.41
2019-03-11T01:21:06.181Z,2.26
2019-03-11T01:26:06.440Z,1.5
2019-03-11T01:31:06.784Z,1.47
2019-03-11T01:35:07.545Z,1.51
2019-03-11T01:36:06.630Z,1.51
2019-03-11T01:41:06.245Z,1.63
2019-03-11T01:45:08.656Z,1.72
2019-03-11T01:50:07.241Z,1.82
2019-03-11T01:55:06.463Z,1.91
2019-03-11T02:00:08.723Z,1.86
2019-03-11T02:05:10.170Z,1.9
2019-03-11T02:10:06.942Z,1.92
2019-03-11T02:15:07.871Z,1.97
2019-03-11T02:20:06.615Z,2.08
2019-03-11T02:24:07.411Z,2.17
2019-03-11T02:25:06.251Z,2.17
2019-03-11T02:29:06.527Z,2.24
2019-03-11T02:34:06.754Z,2.32
2019-03-11T02:39:07.537Z,2.36
2019-03-11T02:44:06.965Z,2.41
2019-03-11T02:49:07.028Z,2.49
2019-03-11T02:54:06.478Z,2.56
2019-03-11T02:59:06.901Z,2.66
2019-03-11T03:04:06.148Z,2.64
2019-03-11T03:09:07.057Z,2.62
2019-03-11T03:13:06.758Z,2.56
2019-03-11T03:18:06.699Z,2.43
2019-03-11T03:23:07.039Z,2.25
2019-03-11T03:28:07.761Z,2.16
2019-03-11T03:33:06.662Z,2.09
2019-03-11T03:38:07.099Z,2.05
2019-03-11T03:43:06.762Z,1.9
2019-03-11T03:47:07.095Z,1.81
2019-03-11T03:52:06.480Z,1.67
2019-03-11T03:57:06.888Z,1.81
2019-03-11T04:02:06.459Z,1.73
2019-03-11T04:07:07.281Z,1.66
2019-03-11T04:12:06.740Z,1.6
2019-03-11T04:17:07.166Z,1.41
2019-03-11T04:22:06.256Z,1.58
2019-03-11T04:27:06.899Z,1.61
2019-03-11T04:32:06.695Z,1.69
2019-03-11T04:37:07.362Z,1.67
2019-03-11T04:41:07.658Z,1.67
2019-03-11T04:42:06.534Z,1.67
2019-03-11T04:46:07.347Z,1.66
2019-03-11T04:51:06.448Z,1.66
2019-03-11T04:56:07.192Z,1.45
2019-03-11T05:01:06.632Z,1.34
2019-03-11T05:06:07.386Z,1.31
2019-03-11T05:11:06.742Z,1.36
2019-03-11T05:15:09.013Z,1.18
2019-03-11T05:16:06.849Z,1.18
2019-03-11T05:20:07.230Z,1.22
2019-03-11T05:25:08.098Z,1.38
2019-03-11T05:30:08.517Z,1.43
2019-03-11T05:35:07.129Z,1.55
2019-03-11T05:40:07.533Z,1.84
2019-03-11T05:45:08.634Z,1.85
2019-03-11T05:50:06.638Z,1.96
2019-03-11T05:55:07.019Z,1.85
2019-03-11T06:00:08.818Z,1.97
2019-03-11T06:04:07.330Z,2.24
2019-03-11T06:09:07.287Z,2.35
2019-03-11T06:14:06.677Z,2.64
2019-03-11T06:19:07.216Z,2.69
2019-03-11T06:24:06.465Z,2.72
2019-03-11T06:29:06.650Z,2.72
2019-03-11T06:34:06.709Z,2.7
2019-03-11T06:38:07.294Z,2.71
2019-03-11T06:43:06.200Z,2.76
2019-03-11T06:48:07.120Z,2.7
2019-03-11T06:53:06.492Z,2.62
2019-03-11T06:58:06.726Z,2.46
2019-03-11T07:03:07.075Z,2.43
2019-03-11T07:08:07.344Z,2.5
2019-03-11T07:13:07.067Z,2.57
2019-03-11T07:17:06.706Z,2.61
2019-03-11T07:18:07.176Z,2.61
2019-03-11T07:22:06.215Z,2.56
2019-03-11T07:27:06.574Z,2.51
2019-03-11T07:32:06.913Z,2.43
2019-03-11T07:37:06.690Z,2.36
2019-03-11T07:42:06.727Z,2.3
2019-03-11T07:47:06.597Z,2.52
2019-03-11T07:52:07.004Z,3.85
2019-03-11T07:56:08.036Z,4.87
2019-03-11T08:01:06.525Z,4.21
2019-03-11T08:06:14.791Z,4.86
2019-03-11T08:11:06.478Z,6.01
2019-03-11T08:16:06.669Z,5.96
2019-03-11T08:21:07.054Z,6
2019-03-11T08:26:07.061Z,6.23
2019-03-11T08:31:07.002Z,6.59
2019-03-11T08:35:07.224Z,5.33
2019-03-11T08:41:06.876Z,6.83
2019-03-11T08:45:07.824Z,5.69
2019-03-11T08:50:06.614Z,5.38
2019-03-11T08:55:06.875Z,4.71
2019-03-11T09:00:09.394Z,4.68
2019-03-11T09:05:07.291Z,5
2019-03-11T09:10:06.992Z,5.31
2019-03-11T09:14:06.958Z,5.1
2019-03-11T09:19:06.283Z,5.78
2019-03-11T09:24:06.725Z,5.75
2019-03-11T09:29:06.310Z,6.6
2019-03-11T09:34:06.332Z,7.64
2019-03-11T09:39:07.164Z,7.16
2019-03-11T09:44:06.509Z,5.87
2019-03-11T09:48:07.257Z,5.99
2019-03-11T09:53:06.905Z,6
2019-03-11T09:58:06.601Z,6.89
2019-03-11T10:03:06.271Z,6.34
2019-03-11T10:08:06.626Z,5.62
2019-03-11T10:13:06.422Z,5.61
2019-03-11T10:18:06.373Z,5.56
2019-03-11T10:22:07.523Z,6.41
2019-03-11T10:23:06.433Z,6.41
2019-03-11T10:27:07.082Z,5.98
2019-03-11T10:32:07.247Z,5.82
2019-03-11T10:37:06.615Z,6
2019-03-11T10:42:07.735Z,5.49
2019-03-11T10:47:07.453Z,5.89
2019-03-11T10:52:07.864Z,6.1
2019-03-11T10:57:07.420Z,5.32
2019-03-11T11:01:06.766Z,5.38
2019-03-11T11:02:06.434Z,5.38
2019-03-11T11:06:07.151Z,5.6
2019-03-11T11:11:07.107Z,5.43
2019-03-11T11:16:07.439Z,4.98
2019-03-11T11:21:06.793Z,4.59
2019-03-11T11:26:07.025Z,4.37
2019-03-11T11:31:06.789Z,4.28
2019-03-11T11:35:07.928Z,4.64
2019-03-11T11:40:06.828Z,4.67
2019-03-11T11:45:08.334Z,4.57
2019-03-11T11:50:06.836Z,5.09
2019-03-11T11:55:07.427Z,5.52
2019-03-11T12:00:08.101Z,5.28
2019-03-11T12:05:06.275Z,5.19
2019-03-11T12:09:07.744Z,4.76
2019-03-11T12:14:07.133Z,4.6
2019-03-11T12:19:07.066Z,4.71
2019-03-11T12:24:07.390Z,4.82
2019-03-11T12:29:06.610Z,4.86
2019-03-11T12:34:06.965Z,5.16
2019-03-11T12:39:07.872Z,5.17
2019-03-11T12:43:07.019Z,5
2019-03-11T12:44:06.559Z,5
2019-03-11T12:48:07.455Z,4.92
2019-03-11T12:53:06.924Z,5.12
2019-03-11T12:58:07.264Z,5.41
2019-03-11T13:03:06.867Z,5.54
2019-03-11T13:08:07.222Z,5.45
2019-03-11T13:13:06.984Z,5.25
2019-03-11T13:18:07.053Z,4.9
2019-03-11T13:22:07.752Z,4.32
2019-03-11T13:27:07.213Z,4.54
2019-03-11T13:32:06.464Z,4.87
2019-03-11T13:37:06.844Z,5.01
2019-03-11T13:42:06.449Z,5.05
2019-03-11T13:47:06.519Z,5.09
2019-03-11T13:52:06.597Z,5.03
2019-03-11T13:57:07.313Z,5.17
2019-03-11T14:02:06.499Z,5.35
2019-03-11T14:06:07.218Z,5.7
2019-03-11T14:11:07.445Z,5.99
2019-03-11T14:16:06.867Z,5.71
2019-03-11T14:21:06.478Z,5.49
2019-03-11T14:26:06.930Z,5.47
2019-03-11T14:31:07.151Z,5.39
2019-03-11T14:36:06.696Z,5.8
2019-03-11T14:40:07.227Z,7.03
2019-03-11T14:45:09.131Z,5.96
2019-03-11T14:50:07.314Z,5.48
2019-03-11T14:55:06.724Z,5.86
2019-03-11T15:00:08.894Z,6.66
2019-03-11T15:05:06.616Z,7.42
2019-03-11T15:10:06.467Z,6.45
2019-03-11T15:14:07.162Z,6.1
2019-03-11T15:19:06.983Z,5.66
2019-03-11T15:24:07.322Z,5.25
2019-03-11T15:29:06.761Z,4.86
2019-03-11T15:34:06.677Z,4.75
2019-03-11T15:39:07.417Z,4.73
2019-03-11T15:44:06.729Z,4.83
2019-03-11T15:49:07.060Z,5.06
2019-03-11T15:53:07.667Z,5.1
2019-03-11T15:54:07.042Z,5.1
2019-03-11T15:58:07.376Z,5.06
2019-03-11T16:03:07.136Z,5.01
2019-03-11T16:08:06.174Z,4.84
2019-03-11T16:13:07.362Z,4.87
2019-03-11T16:18:07.353Z,4.83
2019-03-11T16:23:07.081Z,4.79
2019-03-11T16:28:07.035Z,4.72
2019-03-11T16:33:07.105Z,4.63
2019-03-11T16:37:06.906Z,4.49
2019-03-11T16:42:06.830Z,4.61
2019-03-11T16:47:06.697Z,4.68
2019-03-11T16:52:07.327Z,4.64
2019-03-11T16:57:06.402Z,4.67
2019-03-11T17:02:07.376Z,4.58
2019-03-11T17:06:06.930Z,3.94
2019-03-11T17:11:06.436Z,3.53
2019-03-11T17:16:06.725Z,3.33
2019-03-11T17:21:06.433Z,3.21
2019-03-11T17:26:06.877Z,3.1
2019-03-11T17:31:07.063Z,2.91
2019-03-11T17:36:07.390Z,2.81
2019-03-11T17:40:07.169Z,2.74
2019-03-11T17:41:07.315Z,2.74
2019-03-11T17:45:08.272Z,2.7
2019-03-11T17:50:07.464Z,2.62
2019-03-11T17:55:06.876Z,2.67
2019-03-11T18:00:09.032Z,2.68
2019-03-11T18:05:06.528Z,2.55
2019-03-11T18:10:06.601Z,2.38
2019-03-11T18:15:08.197Z,2.22
2019-03-11T18:19:06.973Z,2.05
2019-03-11T18:24:07.270Z,1.87
2019-03-11T18:29:06.649Z,1.93
2019-03-11T18:34:06.747Z,1.88
2019-03-11T18:39:07.424Z,1.7
2019-03-11T18:44:06.851Z,1.6
2019-03-11T18:49:06.720Z,1.47
2019-03-11T18:54:06.835Z,1.5
2019-03-11T18:58:07.395Z,1.55
2019-03-11T19:03:07.395Z,1.62
2019-03-11T19:08:06.708Z,1.67
2019-03-11T19:13:06.595Z,1.73
2019-03-11T19:18:07.344Z,1.78
2019-03-11T19:23:06.858Z,1.85
2019-03-11T19:28:07.311Z,2
2019-03-11T19:33:07.403Z,2.16
2019-03-11T19:38:07.344Z,2.27
2019-03-11T19:43:07.032Z,2.36
2019-03-11T19:48:07.276Z,2.37
2019-03-11T19:53:06.650Z,2.39
2019-03-11T19:58:07.254Z,2.44
2019-03-11T20:02:07.462Z,2.44
2019-03-11T20:07:06.929Z,2.51
2019-03-11T20:12:06.768Z,2.54
2019-03-11T20:17:06.421Z,2.58
2019-03-11T20:22:06.965Z,2.61
2019-03-11T20:27:06.785Z,2.66
2019-03-11T20:32:06.621Z,2.74
2019-03-11T20:37:07.182Z,2.78
2019-03-11T20:42:06.829Z,2.8
2019-03-11T20:46:06.588Z,2.76
2019-03-11T20:51:06.231Z,2.75
2019-03-11T20:56:06.897Z,2.75
2019-03-11T21:01:07.397Z,2.75
2019-03-11T21:06:07.007Z,2.74
2019-03-11T21:11:06.997Z,2.74
2019-03-11T21:16:06.428Z,2.75
2019-03-11T21:21:06.986Z,2.75
2019-03-11T21:26:06.502Z,2.76
2019-03-11T21:30:08.718Z,2.73
2019-03-11T21:35:06.490Z,2.73
2019-03-11T21:40:06.417Z,2.73
2019-03-11T21:45:08.680Z,2.71
2019-03-11T21:50:06.382Z,2.69
2019-03-11T21:55:06.931Z,2.7
2019-03-11T22:00:08.557Z,2.72
2019-03-11T22:04:07.031Z,2.69
2019-03-11T22:05:06.535Z,2.69
2019-03-11T22:09:07.047Z,2.7
2019-03-11T22:14:06.474Z,2.7
2019-03-11T22:19:06.530Z,2.7
2019-03-11T22:24:06.980Z,2.7
2019-03-11T22:29:06.417Z,2.69
2019-03-11T22:34:06.377Z,2.72
2019-03-11T22:39:07.202Z,2.71
2019-03-11T22:44:06.521Z,2.72
2019-03-11T22:48:07.268Z,2.79
2019-03-11T22:53:06.582Z,2.78
2019-03-11T22:58:06.944Z,2.75
2019-03-11T23:03:06.878Z,2.74
2019-03-11T23:08:06.401Z,2.75
2019-03-11T23:13:06.638Z,2.74
2019-03-11T23:18:06.926Z,2.74
2019-03-11T23:23:07.403Z,2.73
2019-03-11T23:28:06.848Z,2.78
2019-03-11T23:32:06.508Z,2.73
2019-03-11T23:37:06.917Z,2.72
2019-03-11T23:42:06.787Z,2.71
2019-03-11T23:47:07.103Z,2.7
2019-03-11T23:52:06.479Z,2.62
2019-03-11T23:57:06.782Z,2.6
